createdAt,value
2018-12-22T00:00:27.242Z,10.30
2018-12-22T00:02:54.714Z,10.30
2018-12-22T00:05:22.212Z,10.30
2018-12-22T00:07:49.676Z,10.30
2018-12-22T00:10:17.170Z,10.30
2018-12-22T00:12:44.641Z,10.30
2018-12-22T00:15:12.106Z,10.30
2018-12-22T00:17:39.586Z,10.30
2018-12-22T00:20:07.132Z,10.30
2018-12-22T00:22:34.625Z,10.30
2018-12-22T00:25:02.089Z,10.30
2018-12-22T00:27:29.576Z,10.30
2018-12-22T00:29:57.039Z,10.20
2018-12-22T00:32:24.547Z,10.30
2018-12-22T00:34:52.015Z,10.30
2018-12-22T00:37:19.495Z,10.30
2018-12-22T00:39:46.959Z,10.30
2018-12-22T00:42:14.443Z,10.20
2018-12-22T00:44:41.910Z,10.30
2018-12-22T00:47:09.400Z,10.30
2018-12-22T00:49:36.863Z,10.30
2018-12-22T00:52:04.348Z,10.30
2018-12-22T00:54:31.811Z,10.30
2018-12-22T00:56:59.368Z,10.30
2018-12-22T00:59:26.917Z,10.30
2018-12-22T01:01:54.504Z,10.30
2018-12-22T01:04:21.993Z,10.30
2018-12-22T01:06:49.474Z,10.30
2018-12-22T01:09:17.116Z,10.30
2018-12-22T01:11:44.610Z,10.30
2018-12-22T01:14:12.089Z,10.30
2018-12-22T01:16:39.547Z,10.30
2018-12-22T01:19:07.035Z,10.20
2018-12-22T01:21:34.495Z,10.10
2018-12-22T01:24:01.980Z,10.10
2018-12-22T01:26:29.451Z,10.10
2018-12-22T01:28:56.934Z,10.10
2018-12-22T01:31:24.403Z,10.10
2018-12-22T01:33:51.898Z,10.10
2018-12-22T01:36:19.367Z,10.10
2018-12-22T01:38:46.882Z,10.00
2018-12-22T01:41:14.338Z,9.90
2018-12-22T01:43:41.821Z,9.90
2018-12-22T01:46:09.274Z,9.90
2018-12-22T01:48:36.753Z,9.90
2018-12-22T01:51:04.218Z,10.00
2018-12-22T01:53:31.696Z,10.00
2018-12-22T01:55:59.180Z,10.00
2018-12-22T01:58:26.647Z,10.00
2018-12-22T02:00:54.132Z,10.00
2018-12-22T02:03:21.595Z,10.00
2018-12-22T02:05:49.085Z,10.00
2018-12-22T02:08:16.551Z,10.00
2018-12-22T02:10:44.033Z,10.00
2018-12-22T02:13:11.490Z,10.00
2018-12-22T02:15:38.976Z,10.10
2018-12-22T02:18:06.449Z,10.00
2018-12-22T02:20:33.931Z,10.00
2018-12-22T02:23:01.409Z,10.10
2018-12-22T02:25:28.887Z,10.10
2018-12-22T02:27:56.361Z,10.10
2018-12-22T02:30:23.844Z,10.10
2018-12-22T02:32:51.314Z,10.10
2018-12-22T02:35:18.786Z,10.10
2018-12-22T02:37:46.253Z,10.10
2018-12-22T02:40:13.738Z,10.00
2018-12-22T02:42:41.203Z,10.00
2018-12-22T02:45:08.688Z,10.00
2018-12-22T02:47:36.163Z,10.00
2018-12-22T02:50:04.539Z,10.00
2018-12-22T02:52:31.996Z,10.10
2018-12-22T02:54:59.503Z,10.20
2018-12-22T02:57:26.991Z,10.20
2018-12-22T02:59:54.485Z,10.10
2018-12-22T03:02:21.957Z,10.20
2018-12-22T03:04:49.448Z,10.20
2018-12-22T03:07:16.912Z,10.00
2018-12-22T03:09:44.392Z,9.70
2018-12-22T03:12:11.876Z,9.40
2018-12-22T03:14:39.364Z,9.30
2018-12-22T03:17:06.829Z,9.30
2018-12-22T03:19:34.290Z,9.30
2018-12-22T03:22:01.767Z,9.30
2018-12-22T03:24:29.228Z,9.40
2018-12-22T03:26:56.708Z,9.30
2018-12-22T03:29:24.167Z,9.30
2018-12-22T03:31:51.664Z,9.30
2018-12-22T03:34:19.137Z,9.20
2018-12-22T03:36:46.619Z,9.10
2018-12-22T03:39:14.088Z,9.10
2018-12-22T03:41:41.571Z,9.00
2018-12-22T03:44:09.119Z,9.10
2018-12-22T03:46:36.600Z,9.30
2018-12-22T03:49:04.223Z,9.40
2018-12-22T03:51:31.702Z,9.40
2018-12-22T03:53:59.173Z,9.50
2018-12-22T03:56:26.665Z,9.50
2018-12-22T03:58:54.130Z,9.50
2018-12-22T04:01:21.591Z,9.60
2018-12-22T04:03:49.081Z,9.70
2018-12-22T04:06:16.544Z,9.80
2018-12-22T04:08:44.020Z,9.80
2018-12-22T04:11:11.481Z,9.80
2018-12-22T04:13:38.963Z,9.90
2018-12-22T04:16:06.433Z,10.00
2018-12-22T04:18:34.712Z,10.00
2018-12-22T04:21:02.185Z,10.00
2018-12-22T04:23:29.688Z,10.00
2018-12-22T04:25:57.201Z,10.00
2018-12-22T04:28:24.666Z,10.00
2018-12-22T04:30:52.158Z,10.10
2018-12-22T04:33:19.630Z,10.20
2018-12-22T04:35:47.092Z,10.10
2018-12-22T04:38:14.576Z,9.80
2018-12-22T04:40:42.040Z,9.60
2018-12-22T04:43:09.517Z,9.60
2018-12-22T04:45:36.976Z,9.60
2018-12-22T04:48:04.450Z,9.70
2018-12-22T04:50:31.910Z,9.70
2018-12-22T04:52:59.395Z,9.80
2018-12-22T04:55:26.872Z,9.80
2018-12-22T04:57:54.353Z,9.90
2018-12-22T05:00:22.393Z,10.00
2018-12-22T05:02:49.878Z,9.90
2018-12-22T05:05:17.403Z,9.90
2018-12-22T05:07:44.876Z,9.90
2018-12-22T05:10:12.368Z,9.90
2018-12-22T05:12:39.827Z,9.80
2018-12-22T05:15:08.086Z,9.80
2018-12-22T05:17:35.652Z,9.80
2018-12-22T05:20:04.399Z,9.90
2018-12-22T05:22:31.863Z,9.90
2018-12-22T05:24:59.352Z,10.00
2018-12-22T05:27:26.815Z,10.00
2018-12-22T05:29:54.295Z,9.90
2018-12-22T05:32:21.793Z,10.00
2018-12-22T05:34:49.276Z,10.00
2018-12-22T05:37:16.743Z,9.90
2018-12-22T05:39:44.227Z,9.90
2018-12-22T05:42:11.710Z,9.80
2018-12-22T05:44:39.976Z,9.80
2018-12-22T05:47:07.456Z,9.80
2018-12-22T05:49:34.973Z,9.80
2018-12-22T05:52:02.461Z,9.80
2018-12-22T05:54:29.929Z,9.80
2018-12-22T05:56:57.405Z,9.80
2018-12-22T05:59:24.868Z,9.90
2018-12-22T06:01:52.361Z,9.80
2018-12-22T06:04:19.828Z,9.70
2018-12-22T06:06:47.311Z,9.80
2018-12-22T06:09:14.771Z,9.80
2018-12-22T06:11:42.255Z,9.90
2018-12-22T06:14:09.711Z,10.00
2018-12-22T06:16:37.200Z,9.80
2018-12-22T06:19:04.672Z,9.50
2018-12-22T06:21:32.152Z,9.40
2018-12-22T06:23:59.614Z,9.30
2018-12-22T06:26:27.471Z,9.20
2018-12-22T06:28:54.962Z,9.10
2018-12-22T06:31:22.439Z,9.10
2018-12-22T06:33:49.894Z,9.00
2018-12-22T06:36:17.422Z,9.00
2018-12-22T06:38:44.916Z,9.00
2018-12-22T06:41:12.403Z,9.00
2018-12-22T06:43:39.859Z,9.00
2018-12-22T06:46:07.348Z,9.00
2018-12-22T06:48:34.809Z,9.00
2018-12-22T06:51:02.288Z,8.90
2018-12-22T06:53:29.759Z,8.80
2018-12-22T06:55:57.247Z,8.80
2018-12-22T06:58:24.715Z,8.80
2018-12-22T07:00:52.175Z,8.70
2018-12-22T07:03:19.645Z,8.70
2018-12-22T07:05:47.111Z,8.70
2018-12-22T07:08:14.591Z,8.70
2018-12-22T07:10:42.060Z,8.70
2018-12-22T07:13:09.540Z,8.70
2018-12-22T07:15:37.043Z,8.70
2018-12-22T07:18:04.597Z,8.60
2018-12-22T07:20:32.058Z,8.60
2018-12-22T07:22:59.582Z,8.70
2018-12-22T07:25:27.112Z,8.60
2018-12-22T07:27:54.679Z,8.50
2018-12-22T07:30:26.072Z,8.40
2018-12-22T07:32:56.974Z,8.40
2018-12-22T07:35:21.262Z,8.40
2018-12-22T07:37:48.739Z,8.40
2018-12-22T07:40:16.200Z,8.40
2018-12-22T07:42:43.684Z,8.40
2018-12-22T07:45:11.147Z,8.40
2018-12-22T07:47:38.683Z,8.20
2018-12-22T07:50:06.380Z,8.20
2018-12-22T07:52:33.878Z,8.10
2018-12-22T07:55:01.343Z,8.20
2018-12-22T07:57:28.816Z,8.20
2018-12-22T07:59:56.275Z,8.20
2018-12-22T08:02:23.770Z,8.20
2018-12-22T08:04:51.278Z,8.30
2018-12-22T08:07:19.027Z,8.30
2018-12-22T08:09:46.517Z,8.40
2018-12-22T08:12:13.996Z,8.50
2018-12-22T08:14:41.864Z,8.50
2018-12-22T08:17:09.364Z,8.50
2018-12-22T08:19:36.962Z,8.60
2018-12-22T08:22:04.535Z,8.60
2018-12-22T08:24:32.097Z,8.60
2018-12-22T08:26:59.560Z,8.70
2018-12-22T08:29:27.045Z,8.60
2018-12-22T08:31:54.537Z,8.60
2018-12-22T08:34:22.017Z,8.50
2018-12-22T08:36:49.484Z,8.50
2018-12-22T08:39:17.133Z,8.50
2018-12-22T08:41:44.616Z,8.50
2018-12-22T08:44:12.677Z,8.60
2018-12-22T08:46:40.145Z,8.60
2018-12-22T08:49:07.639Z,8.60
2018-12-22T08:51:35.099Z,8.70
2018-12-22T08:54:02.617Z,8.70
2018-12-22T08:56:30.075Z,8.80
2018-12-22T08:58:57.556Z,8.80
2018-12-22T09:01:25.047Z,8.80
2018-12-22T09:03:52.512Z,8.80
2018-12-22T09:06:19.992Z,8.80
2018-12-22T09:08:47.470Z,8.80
2018-12-22T09:11:14.958Z,8.80
2018-12-22T09:13:42.439Z,8.80
2018-12-22T09:16:09.911Z,8.80
2018-12-22T09:18:37.383Z,8.70
2018-12-22T09:21:04.872Z,8.70
2018-12-22T09:23:32.363Z,8.60
2018-12-22T09:25:59.859Z,8.60
2018-12-22T09:28:27.333Z,8.30
2018-12-22T09:31:00.740Z,8.20
2018-12-22T09:33:24.298Z,8.20
2018-12-22T09:35:51.775Z,8.20
2018-12-22T09:38:19.239Z,8.20
2018-12-22T09:40:46.874Z,8.20
2018-12-22T09:43:14.401Z,8.30
2018-12-22T09:45:41.886Z,8.30
2018-12-22T09:48:09.347Z,8.40
2018-12-22T09:50:36.865Z,8.40
2018-12-22T09:53:05.067Z,8.50
2018-12-22T09:55:32.647Z,8.50
2018-12-22T09:58:00.117Z,8.60
2018-12-22T10:00:27.648Z,8.70
2018-12-22T10:02:55.131Z,8.80
2018-12-22T10:05:22.673Z,8.90
2018-12-22T10:07:50.292Z,9.00
2018-12-22T10:10:17.840Z,9.00
2018-12-22T10:12:45.526Z,9.10
2018-12-22T10:15:13.027Z,9.10
2018-12-22T10:17:40.502Z,9.10
2018-12-22T10:20:08.659Z,9.30
2018-12-22T10:22:36.145Z,9.30
2018-12-22T10:25:05.922Z,9.40
2018-12-22T10:27:33.407Z,9.40
2018-12-22T10:30:00.872Z,9.50
2018-12-22T10:32:28.420Z,9.50
2018-12-22T10:34:56.206Z,9.50
2018-12-22T10:37:23.697Z,9.60
2018-12-22T10:39:51.165Z,9.80
2018-12-22T10:42:18.647Z,10.00
2018-12-22T10:44:46.116Z,10.00
2018-12-22T10:47:13.605Z,10.00
2018-12-22T10:49:41.068Z,9.90
2018-12-22T10:52:08.556Z,9.80
2018-12-22T10:54:36.024Z,9.80
2018-12-22T10:57:04.195Z,9.90
2018-12-22T10:59:31.901Z,9.90
2018-12-22T11:01:59.359Z,9.90
2018-12-22T11:04:26.869Z,9.80
2018-12-22T11:06:54.327Z,9.80
2018-12-22T11:09:21.818Z,9.80
2018-12-22T11:11:49.276Z,9.80
2018-12-22T11:14:17.033Z,9.80
2018-12-22T11:16:45.371Z,9.90
2018-12-22T11:19:12.861Z,9.90
2018-12-22T11:21:40.343Z,9.90
2018-12-22T11:24:07.835Z,10.10
2018-12-22T11:26:35.304Z,10.20
2018-12-22T11:29:03.055Z,10.30
2018-12-22T11:31:34.931Z,10.30
2018-12-22T11:34:00.020Z,10.30
2018-12-22T11:36:27.495Z,10.20
2018-12-22T11:38:54.994Z,10.20
2018-12-22T11:41:22.489Z,10.20
2018-12-22T11:43:49.976Z,10.30
2018-12-22T11:46:17.444Z,10.30
2018-12-22T11:48:46.365Z,10.30
2018-12-22T11:51:14.018Z,10.30
2018-12-22T11:53:41.579Z,10.30
2018-12-22T11:56:09.058Z,10.30
2018-12-22T11:58:38.321Z,10.30
2018-12-22T12:01:06.028Z,10.30
2018-12-22T12:03:33.520Z,10.20
2018-12-22T12:06:01.047Z,10.20
2018-12-22T12:08:28.600Z,10.10
2018-12-22T12:10:56.073Z,10.00
2018-12-22T12:13:23.578Z,10.10
2018-12-22T12:15:51.118Z,10.10
2018-12-22T12:18:52.351Z,10.00
2018-12-22T12:21:19.972Z,10.00
2018-12-22T12:23:47.566Z,10.00
2018-12-22T12:26:15.125Z,10.00
2018-12-22T12:28:42.610Z,10.10
2018-12-22T12:31:10.094Z,10.10
2018-12-22T12:33:37.575Z,10.10
2018-12-22T12:36:05.060Z,10.30
2018-12-22T12:38:32.633Z,10.90
2018-12-22T12:41:00.131Z,11.00
2018-12-22T12:43:27.980Z,11.00
2018-12-22T12:45:55.480Z,10.80
2018-12-22T12:48:24.007Z,10.50
2018-12-22T12:50:51.496Z,10.20
2018-12-22T12:53:18.960Z,9.80
2018-12-22T12:55:46.476Z,9.80
2018-12-22T12:58:13.960Z,10.00
2018-12-22T13:00:41.435Z,10.10
2018-12-22T13:03:09.332Z,9.90
2018-12-22T13:05:36.815Z,9.70
2018-12-22T13:08:04.288Z,9.60
2018-12-22T13:10:31.766Z,9.60
2018-12-22T13:13:14.779Z,9.70
2018-12-22T13:15:42.257Z,9.70
2018-12-22T13:18:09.716Z,9.80
2018-12-22T13:20:37.204Z,9.90
2018-12-22T13:23:04.731Z,10.10
2018-12-22T13:25:32.289Z,10.40
2018-12-22T13:27:59.769Z,10.50
2018-12-22T13:30:27.303Z,10.70
2018-12-22T13:32:54.966Z,10.70
2018-12-22T13:35:22.691Z,10.80
2018-12-22T13:37:50.163Z,10.90
2018-12-22T13:40:17.657Z,10.90
2018-12-22T13:42:45.132Z,10.90
2018-12-22T13:45:12.759Z,10.80
2018-12-22T13:47:40.527Z,10.60
2018-12-22T13:50:12.871Z,10.40
2018-12-22T13:52:40.532Z,10.20
2018-12-22T13:55:09.188Z,10.10
2018-12-22T13:57:44.934Z,10.10
2018-12-22T14:00:17.421Z,10.10
2018-12-22T14:02:44.882Z,10.10
2018-12-22T14:05:19.638Z,10.00
2018-12-22T14:07:47.110Z,10.00
2018-12-22T14:10:14.596Z,9.90
2018-12-22T14:12:42.057Z,9.90
2018-12-22T14:15:16.718Z,10.00
2018-12-22T14:17:48.146Z,10.00
2018-12-22T14:20:15.793Z,10.00
2018-12-22T14:22:43.373Z,10.00
2018-12-22T14:25:12.998Z,10.00
2018-12-22T14:27:40.488Z,10.00
2018-12-22T14:30:11.531Z,10.00
2018-12-22T14:32:39.163Z,10.00
2018-12-22T14:35:12.293Z,10.00
2018-12-22T14:37:39.780Z,9.80
2018-12-22T14:40:11.137Z,9.80
2018-12-22T14:42:38.799Z,9.80
2018-12-22T14:45:12.576Z,9.80
2018-12-22T14:47:40.413Z,9.80
2018-12-22T14:50:10.699Z,9.80
2018-12-22T14:52:38.251Z,9.80
2018-12-22T14:55:09.929Z,9.90
2018-12-22T14:57:55.270Z,9.90
2018-12-22T15:00:22.746Z,9.80
2018-12-22T15:02:50.302Z,9.80
2018-12-22T15:05:17.780Z,9.70
2018-12-22T15:07:45.363Z,9.70
2018-12-22T15:10:12.827Z,9.50
2018-12-22T15:12:40.357Z,9.40
2018-12-22T15:15:10.820Z,9.40
2018-12-22T15:17:41.384Z,9.30
2018-12-22T15:20:19.048Z,9.20
2018-12-22T15:22:46.531Z,9.10
2018-12-22T15:25:14.285Z,9.10
2018-12-22T15:27:41.809Z,9.00
2018-12-22T15:30:13.786Z,9.00
2018-12-22T15:32:44.507Z,8.90
2018-12-22T15:35:10.813Z,8.90
2018-12-22T15:37:38.304Z,8.90
2018-12-22T15:40:10.863Z,8.80
2018-12-22T15:42:38.448Z,8.80
2018-12-22T15:45:15.128Z,8.70
2018-12-22T15:47:44.093Z,8.80
2018-12-22T15:50:16.531Z,8.80
2018-12-22T15:52:44.119Z,8.80
2018-12-22T15:55:11.588Z,8.80
2018-12-22T15:57:39.092Z,8.70
2018-12-22T16:00:11.803Z,8.60
2018-12-22T16:02:39.363Z,8.70
2018-12-22T16:05:09.510Z,8.80
2018-12-22T16:07:37.368Z,8.80
2018-12-22T16:10:08.597Z,8.80
2018-12-22T16:12:36.059Z,8.80
2018-12-22T16:15:06.296Z,8.80
2018-12-22T16:17:33.868Z,8.70
2018-12-22T16:20:01.406Z,8.70
2018-12-22T16:22:28.876Z,8.70
2018-12-22T16:24:56.361Z,8.80
2018-12-22T16:27:23.828Z,8.80
2018-12-22T16:29:51.884Z,8.80
2018-12-22T16:32:19.358Z,8.70
2018-12-22T16:34:46.849Z,8.60
2018-12-22T16:37:14.330Z,8.50
2018-12-22T16:39:41.808Z,8.40
2018-12-22T16:42:09.268Z,8.40
2018-12-22T16:44:36.743Z,8.50
2018-12-22T16:47:04.221Z,8.60
2018-12-22T16:49:31.708Z,8.60
2018-12-22T16:51:59.167Z,8.50
2018-12-22T16:54:26.639Z,8.50
2018-12-22T16:56:54.124Z,8.50
2018-12-22T16:59:21.673Z,8.50
2018-12-22T17:01:49.412Z,8.50
2018-12-22T17:04:17.494Z,8.40
2018-12-22T17:06:45.052Z,8.40
2018-12-22T17:09:12.551Z,8.30
2018-12-22T17:11:40.032Z,8.30
2018-12-22T17:14:07.499Z,8.30
2018-12-22T17:16:35.143Z,8.30
2018-12-22T17:19:02.606Z,8.30
2018-12-22T17:21:31.889Z,8.30
2018-12-22T17:24:01.112Z,8.30
2018-12-22T17:26:29.952Z,8.30
2018-12-22T17:28:57.411Z,8.20
2018-12-22T17:31:24.901Z,8.10
2018-12-22T17:33:52.377Z,8.10
2018-12-22T17:36:19.846Z,8.10
2018-12-22T17:38:47.307Z,8.00
2018-12-22T17:41:14.785Z,8.00
2018-12-22T17:43:42.318Z,8.00
2018-12-22T17:46:10.191Z,7.90
2018-12-22T17:48:37.660Z,7.90
2018-12-22T17:51:05.136Z,7.80
2018-12-22T17:53:32.619Z,7.80
2018-12-22T17:56:00.087Z,7.80
2018-12-22T17:58:27.579Z,7.80
2018-12-22T18:00:55.039Z,7.80
2018-12-22T18:03:27.465Z,7.80
2018-12-22T18:05:52.293Z,7.80
2018-12-22T18:08:19.774Z,7.70
2018-12-22T18:10:47.416Z,7.60
2018-12-22T18:13:14.890Z,7.50
2018-12-22T18:15:42.352Z,7.50
2018-12-22T18:18:09.827Z,7.40
2018-12-22T18:20:37.287Z,7.40
2018-12-22T18:23:04.791Z,7.30
2018-12-22T18:25:32.246Z,7.30
2018-12-22T18:27:59.738Z,7.20
2018-12-22T18:30:27.215Z,7.30
2018-12-22T18:32:54.740Z,7.20
2018-12-22T18:35:22.271Z,7.20
2018-12-22T18:37:49.808Z,7.30
2018-12-22T18:40:21.049Z,7.30
2018-12-22T18:42:48.569Z,7.30
2018-12-22T18:45:16.039Z,7.20
2018-12-22T18:47:44.266Z,7.20
2018-12-22T18:50:21.424Z,7.20
2018-12-22T18:52:49.021Z,7.30
2018-12-22T18:55:16.498Z,7.20
2018-12-22T18:57:46.436Z,7.30
2018-12-22T19:00:19.812Z,7.60
2018-12-22T19:02:47.372Z,7.70
2018-12-22T19:05:15.811Z,7.70
2018-12-22T19:07:43.283Z,7.70
2018-12-22T19:10:20.416Z,7.70
2018-12-22T19:12:47.872Z,7.80
2018-12-22T19:15:15.359Z,7.70
2018-12-22T19:17:42.850Z,7.70
2018-12-22T19:20:14.715Z,7.90
2018-12-22T19:22:42.179Z,7.90
2018-12-22T19:25:09.667Z,7.90
2018-12-22T19:27:37.473Z,7.90
2018-12-22T19:30:06.916Z,7.90
2018-12-22T19:32:34.376Z,8.00
2018-12-22T19:35:01.847Z,7.90
2018-12-22T19:37:29.312Z,7.90
2018-12-22T19:39:56.800Z,7.90
2018-12-22T19:42:24.256Z,7.90
2018-12-22T19:44:51.755Z,7.90
2018-12-22T19:47:19.223Z,7.90
2018-12-22T19:49:46.714Z,7.80
2018-12-22T19:52:14.189Z,7.70
2018-12-22T19:54:41.678Z,7.60
2018-12-22T19:57:09.146Z,7.60
2018-12-22T19:59:38.659Z,7.50
2018-12-22T20:02:06.099Z,7.60
2018-12-22T20:04:33.586Z,7.60
2018-12-22T20:07:01.174Z,7.40
2018-12-22T20:09:28.634Z,7.50
2018-12-22T20:11:56.180Z,7.60
2018-12-22T20:14:23.634Z,7.60
2018-12-22T20:16:51.124Z,7.70
2018-12-22T20:19:18.592Z,7.70
2018-12-22T20:21:46.071Z,7.80
2018-12-22T20:24:13.534Z,7.90
2018-12-22T20:26:41.033Z,7.90
2018-12-22T20:29:08.513Z,7.80
2018-12-22T20:31:36.009Z,7.80
2018-12-22T20:34:10.807Z,7.80
2018-12-22T20:36:32.979Z,7.70
2018-12-22T20:39:00.460Z,7.60
2018-12-22T20:41:27.951Z,7.50
2018-12-22T20:43:55.457Z,7.70
2018-12-22T20:46:22.944Z,7.70
2018-12-22T20:48:50.419Z,7.70
2018-12-22T20:51:17.929Z,7.60
2018-12-22T20:53:45.438Z,7.60
2018-12-22T20:56:12.914Z,7.50
2018-12-22T20:58:40.395Z,7.60
2018-12-22T21:01:07.875Z,7.60
2018-12-22T21:03:39.639Z,7.50
2018-12-22T21:06:11.095Z,7.40
2018-12-22T21:08:38.583Z,7.40
2018-12-22T21:11:06.049Z,7.40
2018-12-22T21:13:33.546Z,7.40
2018-12-22T21:16:01.027Z,7.40
2018-12-22T21:18:28.604Z,7.40
2018-12-22T21:20:56.083Z,7.40
2018-12-22T21:23:23.571Z,7.40
2018-12-22T21:25:51.032Z,7.40
2018-12-22T21:28:18.583Z,7.40
2018-12-22T21:30:46.274Z,7.40
2018-12-22T21:33:13.750Z,7.40
2018-12-22T21:35:41.598Z,7.40
2018-12-22T21:38:09.087Z,7.40
2018-12-22T21:40:36.575Z,7.40
2018-12-22T21:43:04.072Z,7.20
2018-12-22T21:45:31.559Z,7.20
2018-12-22T21:47:59.067Z,7.20
2018-12-22T21:50:26.554Z,7.20
2018-12-22T21:52:54.016Z,7.20
2018-12-22T21:55:21.499Z,7.10
2018-12-22T21:57:48.987Z,7.10
2018-12-22T22:00:16.496Z,7.10
2018-12-22T22:02:43.967Z,7.20
2018-12-22T22:05:11.475Z,7.20
2018-12-22T22:07:38.964Z,7.20
2018-12-22T22:10:06.587Z,7.30
2018-12-22T22:12:34.070Z,7.40
2018-12-22T22:15:03.756Z,7.50
2018-12-22T22:17:31.672Z,6.60
2018-12-22T22:19:59.152Z,7.50
2018-12-22T22:22:26.642Z,7.60
2018-12-22T22:24:54.187Z,7.60
2018-12-22T22:27:21.881Z,7.70
2018-12-22T22:29:49.364Z,7.70
2018-12-22T22:32:16.845Z,7.70
2018-12-22T22:34:45.731Z,7.80
2018-12-22T22:37:14.263Z,7.80
2018-12-22T22:39:41.739Z,7.70
2018-12-22T22:42:09.235Z,7.70
2018-12-22T22:44:36.750Z,7.80
2018-12-22T22:47:04.233Z,7.80
2018-12-22T22:49:31.705Z,7.90
2018-12-22T22:51:59.202Z,7.80
2018-12-22T22:54:27.583Z,7.80
2018-12-22T22:56:55.072Z,7.80
2018-12-22T22:59:22.560Z,7.80
2018-12-22T23:01:50.069Z,7.60
2018-12-22T23:04:17.548Z,7.60
2018-12-22T23:06:45.035Z,7.70
2018-12-22T23:09:12.506Z,7.60
2018-12-22T23:11:40.004Z,7.60
2018-12-22T23:14:07.574Z,7.60
2018-12-22T23:16:35.391Z,7.50
2018-12-22T23:19:02.855Z,7.40
2018-12-22T23:21:30.349Z,7.40
2018-12-22T23:23:57.808Z,7.30
2018-12-22T23:26:25.285Z,7.20
2018-12-22T23:28:52.747Z,7.20
2018-12-22T23:31:20.251Z,7.20
2018-12-22T23:33:47.711Z,7.20
2018-12-22T23:36:15.263Z,7.30
2018-12-22T23:38:43.029Z,7.40
2018-12-22T23:41:10.505Z,7.40
2018-12-22T23:43:38.158Z,7.50
2018-12-22T23:46:05.632Z,7.50
2018-12-22T23:48:33.110Z,7.40
2018-12-22T23:51:00.644Z,7.40
2018-12-22T23:53:28.621Z,7.40
2018-12-22T23:55:56.110Z,7.40
2018-12-22T23:58:23.665Z,7.40
